sensor_id;sensor_type;location;lat;lon;timestamp;temperature;humidity
60033;DHT22;45905;50.570;10.428;2022-07-29T00:01:40;19.00;46.10
60033;DHT22;45905;50.570;10.428;2022-07-29T00:04:08;19.00;46.50
60033;DHT22;45905;50.570;10.428;2022-07-29T00:06:35;19.00;46.50
60033;DHT22;45905;50.570;10.428;2022-07-29T00:09:03;19.00;47.30
60033;DHT22;45905;50.570;10.428;2022-07-29T00:11:30;19.00;46.40
60033;DHT22;45905;50.570;10.428;2022-07-29T00:13:57;18.90;46.20
60033;DHT22;45905;50.570;10.428;2022-07-29T00:16:24;18.90;46.00
60033;DHT22;45905;50.570;10.428;2022-07-29T00:18:52;18.80;45.90
60033;DHT22;45905;50.570;10.428;2022-07-29T00:21:19;18.80;46.60
60033;DHT22;45905;50.570;10.428;2022-07-29T00:23:46;18.70;46.70
60033;DHT22;45905;50.570;10.428;2022-07-29T00:26:13;18.70;47.20
60033;DHT22;45905;50.570;10.428;2022-07-29T00:28:40;18.70;47.20
60033;DHT22;45905;50.570;10.428;2022-07-29T00:31:07;18.70;47.40
60033;DHT22;45905;50.570;10.428;2022-07-29T00:33:35;18.70;47.60
60033;DHT22;45905;50.570;10.428;2022-07-29T00:36:02;18.70;47.60
60033;DHT22;45905;50.570;10.428;2022-07-29T00:38:30;18.60;47.20
60033;DHT22;45905;50.570;10.428;2022-07-29T00:40:57;18.60;47.40
60033;DHT22;45905;50.570;10.428;2022-07-29T00:43:24;18.50;47.00
60033;DHT22;45905;50.570;10.428;2022-07-29T00:45:51;18.50;47.60
60033;DHT22;45905;50.570;10.428;2022-07-29T00:48:19;18.50;48.00
60033;DHT22;45905;50.570;10.428;2022-07-29T00:50:46;18.50;47.90
60033;DHT22;45905;50.570;10.428;2022-07-29T00:53:15;18.50;47.50
60033;DHT22;45905;50.570;10.428;2022-07-29T00:55:42;18.40;47.60
60033;DHT22;45905;50.570;10.428;2022-07-29T00:58:12;18.40;47.80
60033;DHT22;45905;50.570;10.428;2022-07-29T01:00:41;18.40;48.40
60033;DHT22;45905;50.570;10.428;2022-07-29T01:03:11;18.40;48.50
60033;DHT22;45905;50.570;10.428;2022-07-29T01:05:39;18.40;48.30
60033;DHT22;45905;50.570;10.428;2022-07-29T01:08:17;18.40;48.20
60033;DHT22;45905;50.570;10.428;2022-07-29T01:10:45;18.40;48.00
60033;DHT22;45905;50.570;10.428;2022-07-29T01:13:14;18.30;47.80
60033;DHT22;45905;50.570;10.428;2022-07-29T01:15:51;18.30;47.80
60033;DHT22;45905;50.570;10.428;2022-07-29T01:18:34;18.30;48.50
60033;DHT22;45905;50.570;10.428;2022-07-29T01:25:23;18.30;49.00
60033;DHT22;45905;50.570;10.428;2022-07-29T01:30:38;18.20;48.80
60033;DHT22;45905;50.570;10.428;2022-07-29T01:33:13;18.20;49.10
60033;DHT22;45905;50.570;10.428;2022-07-29T01:36:09;18.20;49.40
60033;DHT22;45905;50.570;10.428;2022-07-29T01:38:41;18.20;49.70
60033;DHT22;45905;50.570;10.428;2022-07-29T01:41:16;18.10;49.70
60033;DHT22;45905;50.570;10.428;2022-07-29T01:43:59;18.10;50.00
60033;DHT22;45905;50.570;10.428;2022-07-29T01:46:35;18.10;50.20
60033;DHT22;45905;50.570;10.428;2022-07-29T01:49:13;18.10;50.30
60033;DHT22;45905;50.570;10.428;2022-07-29T01:51:51;18.10;50.70
60033;DHT22;45905;50.570;10.428;2022-07-29T01:54:57;18.10;50.50
60033;DHT22;45905;50.570;10.428;2022-07-29T01:57:28;18.10;50.10
60033;DHT22;45905;50.570;10.428;2022-07-29T01:59:58;18.10;49.80
60033;DHT22;45905;50.570;10.428;2022-07-29T02:02:40;18.10;49.50
60033;DHT22;45905;50.570;10.428;2022-07-29T02:05:13;18.00;49.40
60033;DHT22;45905;50.570;10.428;2022-07-29T02:07:43;18.00;50.10
60033;DHT22;45905;50.570;10.428;2022-07-29T02:10:14;18.00;50.50
60033;DHT22;45905;50.570;10.428;2022-07-29T02:12:45;18.00;51.00
60033;DHT22;45905;50.570;10.428;2022-07-29T02:15:17;18.00;51.20
60033;DHT22;45905;50.570;10.428;2022-07-29T02:17:56;18.00;50.80
60033;DHT22;45905;50.570;10.428;2022-07-29T02:20:27;18.00;50.70
60033;DHT22;45905;50.570;10.428;2022-07-29T02:22:57;17.90;50.70
60033;DHT22;45905;50.570;10.428;2022-07-29T02:25:26;17.90;50.80
60033;DHT22;45905;50.570;10.428;2022-07-29T02:28:04;17.90;51.00
60033;DHT22;45905;50.570;10.428;2022-07-29T02:30:36;17.90;50.90
60033;DHT22;45905;50.570;10.428;2022-07-29T02:33:06;17.80;50.90
60033;DHT22;45905;50.570;10.428;2022-07-29T02:35:35;17.80;50.80
60033;DHT22;45905;50.570;10.428;2022-07-29T02:38:03;17.80;50.50
60033;DHT22;45905;50.570;10.428;2022-07-29T02:40:50;17.80;50.60
60033;DHT22;45905;50.570;10.428;2022-07-29T02:43:21;17.80;50.30
60033;DHT22;45905;50.570;10.428;2022-07-29T02:45:51;17.70;50.20
60033;DHT22;45905;50.570;10.428;2022-07-29T02:48:30;17.70;50.40
60033;DHT22;45905;50.570;10.428;2022-07-29T02:51:32;17.60;50.80
60033;DHT22;45905;50.570;10.428;2022-07-29T02:54:14;17.60;50.90
60033;DHT22;45905;50.570;10.428;2022-07-29T02:56:53;17.60;51.00
60033;DHT22;45905;50.570;10.428;2022-07-29T02:59:26;17.60;51.10
60033;DHT22;45905;50.570;10.428;2022-07-29T03:01:58;17.50;50.90
60033;DHT22;45905;50.570;10.428;2022-07-29T03:04:27;17.50;50.70
60033;DHT22;45905;50.570;10.428;2022-07-29T03:06:58;17.50;50.50
60033;DHT22;45905;50.570;10.428;2022-07-29T03:09:27;17.50;50.70
60033;DHT22;45905;50.570;10.428;2022-07-29T03:11:57;17.50;50.60
60033;DHT22;45905;50.570;10.428;2022-07-29T03:14:25;17.40;50.50
60033;DHT22;45905;50.570;10.428;2022-07-29T03:16:53;17.40;51.40
60033;DHT22;45905;50.570;10.428;2022-07-29T03:19:21;17.40;51.80
60033;DHT22;45905;50.570;10.428;2022-07-29T03:21:49;17.40;52.60
60033;DHT22;45905;50.570;10.428;2022-07-29T03:24:27;17.30;52.30
60033;DHT22;45905;50.570;10.428;2022-07-29T03:26:59;17.30;52.90
60033;DHT22;45905;50.570;10.428;2022-07-29T03:29:27;17.30;52.50
60033;DHT22;45905;50.570;10.428;2022-07-29T03:32:03;17.30;52.50
60033;DHT22;45905;50.570;10.428;2022-07-29T03:34:33;17.30;52.90
60033;DHT22;45905;50.570;10.428;2022-07-29T03:37:01;17.30;53.20
60033;DHT22;45905;50.570;10.428;2022-07-29T03:39:33;17.30;53.00
60033;DHT22;45905;50.570;10.428;2022-07-29T03:42:05;17.30;52.60
60033;DHT22;45905;50.570;10.428;2022-07-29T03:44:35;17.30;52.70
60033;DHT22;45905;50.570;10.428;2022-07-29T03:47:05;17.30;52.80
60033;DHT22;45905;50.570;10.428;2022-07-29T03:49:36;17.30;52.90
60033;DHT22;45905;50.570;10.428;2022-07-29T03:52:05;17.30;52.90
60033;DHT22;45905;50.570;10.428;2022-07-29T03:54:33;17.30;52.70
60033;DHT22;45905;50.570;10.428;2022-07-29T03:57:02;17.20;52.70
60033;DHT22;45905;50.570;10.428;2022-07-29T03:59:32;17.20;53.20
60033;DHT22;45905;50.570;10.428;2022-07-29T04:02:03;17.20;53.70
60033;DHT22;45905;50.570;10.428;2022-07-29T04:04:33;17.20;53.80
60033;DHT22;45905;50.570;10.428;2022-07-29T04:07:01;17.20;53.60
60033;DHT22;45905;50.570;10.428;2022-07-29T04:09:29;17.20;53.40
60033;DHT22;45905;50.570;10.428;2022-07-29T04:12:13;17.20;53.20
60033;DHT22;45905;50.570;10.428;2022-07-29T04:14:41;17.20;52.90
60033;DHT22;45905;50.570;10.428;2022-07-29T04:17:08;17.20;52.90
60033;DHT22;45905;50.570;10.428;2022-07-29T04:19:35;17.20;53.50
60033;DHT22;45905;50.570;10.428;2022-07-29T04:22:02;17.20;53.80
60033;DHT22;45905;50.570;10.428;2022-07-29T04:24:30;17.20;53.80
60033;DHT22;45905;50.570;10.428;2022-07-29T04:26:57;17.20;54.30
60033;DHT22;45905;50.570;10.428;2022-07-29T04:29:24;17.20;54.90
60033;DHT22;45905;50.570;10.428;2022-07-29T04:31:51;17.20;54.00
60033;DHT22;45905;50.570;10.428;2022-07-29T04:34:18;17.20;55.40
60033;DHT22;45905;50.570;10.428;2022-07-29T04:36:46;17.20;55.10
60033;DHT22;45905;50.570;10.428;2022-07-29T04:39:13;17.20;54.50
60033;DHT22;45905;50.570;10.428;2022-07-29T04:41:48;17.20;54.60
60033;DHT22;45905;50.570;10.428;2022-07-29T04:44:18;17.20;55.50
60033;DHT22;45905;50.570;10.428;2022-07-29T04:46:45;17.20;56.20
60033;DHT22;45905;50.570;10.428;2022-07-29T04:49:13;17.10;56.60
60033;DHT22;45905;50.570;10.428;2022-07-29T04:51:40;17.20;56.40
60033;DHT22;45905;50.570;10.428;2022-07-29T04:54:07;17.20;56.40
60033;DHT22;45905;50.570;10.428;2022-07-29T04:56:34;17.20;56.80
60033;DHT22;45905;50.570;10.428;2022-07-29T04:59:02;17.20;56.60
60033;DHT22;45905;50.570;10.428;2022-07-29T05:01:29;17.20;56.30
60033;DHT22;45905;50.570;10.428;2022-07-29T05:03:56;17.20;56.10
60033;DHT22;45905;50.570;10.428;2022-07-29T05:06:26;17.20;56.20
60033;DHT22;45905;50.570;10.428;2022-07-29T05:08:53;17.20;55.50
60033;DHT22;45905;50.570;10.428;2022-07-29T05:11:20;17.10;56.00
60033;DHT22;45905;50.570;10.428;2022-07-29T05:13:52;17.20;55.80
60033;DHT22;45905;50.570;10.428;2022-07-29T05:16:20;17.10;55.90
60033;DHT22;45905;50.570;10.428;2022-07-29T05:18:48;17.20;56.10
60033;DHT22;45905;50.570;10.428;2022-07-29T05:21:15;17.20;56.70
60033;DHT22;45905;50.570;10.428;2022-07-29T05:23:42;17.30;57.30
60033;DHT22;45905;50.570;10.428;2022-07-29T05:26:09;17.40;57.50
60033;DHT22;45905;50.570;10.428;2022-07-29T05:28:37;17.40;57.60
60033;DHT22;45905;50.570;10.428;2022-07-29T05:31:04;17.50;57.40
60033;DHT22;45905;50.570;10.428;2022-07-29T05:33:31;17.60;57.50
60033;DHT22;45905;50.570;10.428;2022-07-29T05:36:04;17.60;57.10
60033;DHT22;45905;50.570;10.428;2022-07-29T05:38:34;17.70;56.90
60033;DHT22;45905;50.570;10.428;2022-07-29T05:41:03;17.70;56.70
60033;DHT22;45905;50.570;10.428;2022-07-29T05:43:32;17.70;56.20
60033;DHT22;45905;50.570;10.428;2022-07-29T05:45:59;17.80;56.00
60033;DHT22;45905;50.570;10.428;2022-07-29T05:48:27;17.80;56.00
60033;DHT22;45905;50.570;10.428;2022-07-29T05:50:54;17.80;55.90
60033;DHT22;45905;50.570;10.428;2022-07-29T05:53:22;17.90;55.60
60033;DHT22;45905;50.570;10.428;2022-07-29T05:55:50;17.90;55.60
60033;DHT22;45905;50.570;10.428;2022-07-29T05:58:17;18.00;55.70
60033;DHT22;45905;50.570;10.428;2022-07-29T06:00:45;18.00;55.80
60033;DHT22;45905;50.570;10.428;2022-07-29T06:03:12;18.00;55.80
60033;DHT22;45905;50.570;10.428;2022-07-29T06:05:40;18.00;56.00
60033;DHT22;45905;50.570;10.428;2022-07-29T06:08:07;18.00;56.30
60033;DHT22;45905;50.570;10.428;2022-07-29T06:10:35;18.00;56.30
60033;DHT22;45905;50.570;10.428;2022-07-29T06:13:02;18.00;56.40
60033;DHT22;45905;50.570;10.428;2022-07-29T06:15:30;18.10;56.50
60033;DHT22;45905;50.570;10.428;2022-07-29T06:17:57;18.10;56.70
60033;DHT22;45905;50.570;10.428;2022-07-29T06:20:30;18.10;56.40
60033;DHT22;45905;50.570;10.428;2022-07-29T06:22:59;18.10;56.30
60033;DHT22;45905;50.570;10.428;2022-07-29T06:25:27;18.20;56.60
60033;DHT22;45905;50.570;10.428;2022-07-29T06:28:01;18.20;56.90
60033;DHT22;45905;50.570;10.428;2022-07-29T06:30:29;18.10;56.60
60033;DHT22;45905;50.570;10.428;2022-07-29T06:32:56;18.30;56.60
60033;DHT22;45905;50.570;10.428;2022-07-29T06:35:23;18.30;56.70
60033;DHT22;45905;50.570;10.428;2022-07-29T06:38:08;18.40;56.40
60033;DHT22;45905;50.570;10.428;2022-07-29T06:40:56;18.50;55.90
60033;DHT22;45905;50.570;10.428;2022-07-29T06:43:32;18.50;56.00
60033;DHT22;45905;50.570;10.428;2022-07-29T06:46:17;18.60;55.90
60033;DHT22;45905;50.570;10.428;2022-07-29T06:48:46;18.60;55.70
60033;DHT22;45905;50.570;10.428;2022-07-29T06:51:14;18.60;55.50
60033;DHT22;45905;50.570;10.428;2022-07-29T06:53:51;18.70;55.60
60033;DHT22;45905;50.570;10.428;2022-07-29T06:56:33;18.80;55.30
60033;DHT22;45905;50.570;10.428;2022-07-29T06:59:09;18.80;54.90
60033;DHT22;45905;50.570;10.428;2022-07-29T07:01:41;18.90;54.40
60033;DHT22;45905;50.570;10.428;2022-07-29T07:04:10;18.90;54.20
60033;DHT22;45905;50.570;10.428;2022-07-29T07:06:39;19.00;54.40
60033;DHT22;45905;50.570;10.428;2022-07-29T07:09:06;19.10;54.20
60033;DHT22;45905;50.570;10.428;2022-07-29T07:11:34;19.20;54.30
60033;DHT22;45905;50.570;10.428;2022-07-29T07:14:01;19.30;54.00
60033;DHT22;45905;50.570;10.428;2022-07-29T07:16:30;19.40;53.70
60033;DHT22;45905;50.570;10.428;2022-07-29T07:18:59;19.50;53.30
60033;DHT22;45905;50.570;10.428;2022-07-29T07:21:26;19.50;53.10
60033;DHT22;45905;50.570;10.428;2022-07-29T07:23:57;19.60;52.90
60033;DHT22;45905;50.570;10.428;2022-07-29T07:26:25;19.70;52.70
60033;DHT22;45905;50.570;10.428;2022-07-29T07:28:52;19.80;52.40
60033;DHT22;45905;50.570;10.428;2022-07-29T07:31:20;19.90;52.00
60033;DHT22;45905;50.570;10.428;2022-07-29T07:33:47;20.00;51.50
60033;DHT22;45905;50.570;10.428;2022-07-29T07:36:14;20.10;51.20
60033;DHT22;45905;50.570;10.428;2022-07-29T07:38:41;20.10;51.00
60033;DHT22;45905;50.570;10.428;2022-07-29T07:41:09;20.20;50.90
60033;DHT22;45905;50.570;10.428;2022-07-29T07:43:36;20.30;50.60
60033;DHT22;45905;50.570;10.428;2022-07-29T07:46:03;20.40;50.70
60033;DHT22;45905;50.570;10.428;2022-07-29T07:48:31;20.50;51.10
60033;DHT22;45905;50.570;10.428;2022-07-29T07:50:58;20.60;51.50
60033;DHT22;45905;50.570;10.428;2022-07-29T07:53:26;20.70;51.10
60033;DHT22;45905;50.570;10.428;2022-07-29T07:55:53;20.80;50.80
60033;DHT22;45905;50.570;10.428;2022-07-29T07:58:38;20.90;50.30
60033;DHT22;45905;50.570;10.428;2022-07-29T08:01:05;21.00;50.10
60033;DHT22;45905;50.570;10.428;2022-07-29T08:03:33;21.10;50.10
60033;DHT22;45905;50.570;10.428;2022-07-29T08:06:01;21.20;50.30
60033;DHT22;45905;50.570;10.428;2022-07-29T08:08:29;21.30;50.30
60033;DHT22;45905;50.570;10.428;2022-07-29T08:10:56;21.50;49.50
60033;DHT22;45905;50.570;10.428;2022-07-29T08:13:25;21.60;49.70
60033;DHT22;45905;50.570;10.428;2022-07-29T08:15:58;21.70;49.80
60033;DHT22;45905;50.570;10.428;2022-07-29T08:18:31;21.80;49.40
60033;DHT22;45905;50.570;10.428;2022-07-29T08:20:58;21.90;49.00
60033;DHT22;45905;50.570;10.428;2022-07-29T08:23:26;22.10;48.90
60033;DHT22;45905;50.570;10.428;2022-07-29T08:26:14;22.20;48.30
60033;DHT22;45905;50.570;10.428;2022-07-29T08:28:43;22.30;47.80
60033;DHT22;45905;50.570;10.428;2022-07-29T08:31:13;22.40;47.70
60033;DHT22;45905;50.570;10.428;2022-07-29T08:33:41;22.50;48.00
60033;DHT22;45905;50.570;10.428;2022-07-29T08:36:09;22.60;47.70
60033;DHT22;45905;50.570;10.428;2022-07-29T08:38:36;22.70;47.30
60033;DHT22;45905;50.570;10.428;2022-07-29T08:41:03;22.70;47.40
60033;DHT22;45905;50.570;10.428;2022-07-29T08:43:31;22.80;47.20
60033;DHT22;45905;50.570;10.428;2022-07-29T08:45:58;22.90;46.60
60033;DHT22;45905;50.570;10.428;2022-07-29T08:48:27;23.00;46.00
60033;DHT22;45905;50.570;10.428;2022-07-29T08:50:55;23.00;46.20
60033;DHT22;45905;50.570;10.428;2022-07-29T08:53:25;23.00;46.00
60033;DHT22;45905;50.570;10.428;2022-07-29T08:55:54;23.10;46.30
60033;DHT22;45905;50.570;10.428;2022-07-29T08:58:23;23.10;46.20
60033;DHT22;45905;50.570;10.428;2022-07-29T09:00:56;23.20;46.20
60033;DHT22;45905;50.570;10.428;2022-07-29T09:03:29;23.30;46.00
60033;DHT22;45905;50.570;10.428;2022-07-29T09:05:58;23.30;45.90
60033;DHT22;45905;50.570;10.428;2022-07-29T09:08:26;23.40;46.20
60033;DHT22;45905;50.570;10.428;2022-07-29T09:10:55;23.40;46.10
60033;DHT22;45905;50.570;10.428;2022-07-29T09:13:29;23.50;46.30
60033;DHT22;45905;50.570;10.428;2022-07-29T09:15:57;23.60;46.20
60033;DHT22;45905;50.570;10.428;2022-07-29T09:18:44;23.70;46.20
60033;DHT22;45905;50.570;10.428;2022-07-29T09:21:15;23.70;46.00
60033;DHT22;45905;50.570;10.428;2022-07-29T09:24:09;23.80;45.90
60033;DHT22;45905;50.570;10.428;2022-07-29T09:26:43;23.80;45.70
60033;DHT22;45905;50.570;10.428;2022-07-29T09:29:17;23.80;45.90
60033;DHT22;45905;50.570;10.428;2022-07-29T09:31:54;23.80;45.70
60033;DHT22;45905;50.570;10.428;2022-07-29T09:34:27;23.80;45.50
60033;DHT22;45905;50.570;10.428;2022-07-29T09:36:56;23.80;45.60
60033;DHT22;45905;50.570;10.428;2022-07-29T09:39:36;23.80;45.50
60033;DHT22;45905;50.570;10.428;2022-07-29T09:42:12;23.80;45.60
60033;DHT22;45905;50.570;10.428;2022-07-29T09:44:44;23.80;46.20
60033;DHT22;45905;50.570;10.428;2022-07-29T09:47:20;23.70;47.60
60033;DHT22;45905;50.570;10.428;2022-07-29T09:49:57;23.70;49.00
60033;DHT22;45905;50.570;10.428;2022-07-29T09:52:30;23.80;50.40
60033;DHT22;45905;50.570;10.428;2022-07-29T09:55:08;23.70;50.60
60033;DHT22;45905;50.570;10.428;2022-07-29T09:57:44;23.60;49.80
60033;DHT22;45905;50.570;10.428;2022-07-29T10:00:15;23.60;49.60
60033;DHT22;45905;50.570;10.428;2022-07-29T10:02:46;23.50;49.10
60033;DHT22;45905;50.570;10.428;2022-07-29T10:05:25;23.50;48.70
60033;DHT22;45905;50.570;10.428;2022-07-29T10:08:03;23.40;48.60
60033;DHT22;45905;50.570;10.428;2022-07-29T10:10:35;23.40;48.40
60033;DHT22;45905;50.570;10.428;2022-07-29T10:13:11;23.30;50.70
60033;DHT22;45905;50.570;10.428;2022-07-29T10:15:44;23.30;49.00
60033;DHT22;45905;50.570;10.428;2022-07-29T10:18:14;23.30;49.10
60033;DHT22;45905;50.570;10.428;2022-07-29T10:20:44;23.30;49.10
60033;DHT22;45905;50.570;10.428;2022-07-29T10:23:11;23.30;48.50
60033;DHT22;45905;50.570;10.428;2022-07-29T10:25:39;23.30;47.70
60033;DHT22;45905;50.570;10.428;2022-07-29T10:28:12;23.30;47.60
60033;DHT22;45905;50.570;10.428;2022-07-29T10:30:43;23.30;47.70
60033;DHT22;45905;50.570;10.428;2022-07-29T10:34:02;23.30;47.40
60033;DHT22;45905;50.570;10.428;2022-07-29T10:36:46;23.40;47.70
60033;DHT22;45905;50.570;10.428;2022-07-29T10:39:41;23.50;48.10
60033;DHT22;45905;50.570;10.428;2022-07-29T10:42:25;23.60;48.50
60033;DHT22;45905;50.570;10.428;2022-07-29T10:45:02;23.70;48.50
60033;DHT22;45905;50.570;10.428;2022-07-29T10:47:31;23.70;48.10
60033;DHT22;45905;50.570;10.428;2022-07-29T10:50:03;23.80;47.50
60033;DHT22;45905;50.570;10.428;2022-07-29T10:53:04;23.90;47.90
60033;DHT22;45905;50.570;10.428;2022-07-29T10:55:39;24.00;48.60
60033;DHT22;45905;50.570;10.428;2022-07-29T10:58:18;24.00;48.70
60033;DHT22;45905;50.570;10.428;2022-07-29T11:00:52;24.20;49.30
60033;DHT22;45905;50.570;10.428;2022-07-29T11:06:19;24.40;48.70
60033;DHT22;45905;50.570;10.428;2022-07-29T11:09:15;24.60;48.90
60033;DHT22;45905;50.570;10.428;2022-07-29T11:11:51;24.70;48.10
60033;DHT22;45905;50.570;10.428;2022-07-29T11:14:54;24.90;48.40
60033;DHT22;45905;50.570;10.428;2022-07-29T11:17:23;25.00;48.70
60033;DHT22;45905;50.570;10.428;2022-07-29T11:19:51;25.10;47.90
60033;DHT22;45905;50.570;10.428;2022-07-29T11:22:35;25.20;48.10
60033;DHT22;45905;50.570;10.428;2022-07-29T11:25:14;25.40;48.40
60033;DHT22;45905;50.570;10.428;2022-07-29T11:28:16;25.40;48.20
60033;DHT22;45905;50.570;10.428;2022-07-29T11:30:52;25.60;47.90
60033;DHT22;45905;50.570;10.428;2022-07-29T11:33:33;25.60;48.20
60033;DHT22;45905;50.570;10.428;2022-07-29T11:36:20;25.80;48.50
60033;DHT22;45905;50.570;10.428;2022-07-29T11:39:26;25.80;47.60
60033;DHT22;45905;50.570;10.428;2022-07-29T11:47:57;26.10;46.40
60033;DHT22;45905;50.570;10.428;2022-07-29T11:50:45;26.20;45.70
60033;DHT22;45905;50.570;10.428;2022-07-29T11:53:14;26.30;45.80
60033;DHT22;45905;50.570;10.428;2022-07-29T11:55:42;26.40;45.60
60033;DHT22;45905;50.570;10.428;2022-07-29T11:58:21;26.50;45.90
60033;DHT22;45905;50.570;10.428;2022-07-29T12:00:51;26.60;45.50
60033;DHT22;45905;50.570;10.428;2022-07-29T12:03:28;26.70;45.50
60033;DHT22;45905;50.570;10.428;2022-07-29T12:06:02;26.80;45.80
60033;DHT22;45905;50.570;10.428;2022-07-29T12:08:42;26.90;45.80
60033;DHT22;45905;50.570;10.428;2022-07-29T12:11:18;27.00;44.80
60033;DHT22;45905;50.570;10.428;2022-07-29T12:13:50;27.10;45.00
60033;DHT22;45905;50.570;10.428;2022-07-29T12:16:19;27.20;45.00
60033;DHT22;45905;50.570;10.428;2022-07-29T12:18:59;27.30;43.90
60033;DHT22;45905;50.570;10.428;2022-07-29T12:21:45;27.50;43.90
60033;DHT22;45905;50.570;10.428;2022-07-29T12:24:25;27.60;43.90
60033;DHT22;45905;50.570;10.428;2022-07-29T12:26:55;27.80;43.60
60033;DHT22;45905;50.570;10.428;2022-07-29T12:29:24;27.90;42.60
60033;DHT22;45905;50.570;10.428;2022-07-29T12:32:02;28.10;43.20
60033;DHT22;45905;50.570;10.428;2022-07-29T12:34:31;28.20;41.60
60033;DHT22;45905;50.570;10.428;2022-07-29T12:36:59;28.30;41.10
60033;DHT22;45905;50.570;10.428;2022-07-29T12:39:27;28.40;42.30
60033;DHT22;45905;50.570;10.428;2022-07-29T12:41:55;28.60;42.30
60033;DHT22;45905;50.570;10.428;2022-07-29T12:44:50;28.70;41.40
60033;DHT22;45905;50.570;10.428;2022-07-29T12:47:18;28.90;39.40
60033;DHT22;45905;50.570;10.428;2022-07-29T12:49:47;28.90;38.00
60033;DHT22;45905;50.570;10.428;2022-07-29T12:52:30;29.00;38.60
60033;DHT22;45905;50.570;10.428;2022-07-29T12:55:00;29.20;39.10
60033;DHT22;45905;50.570;10.428;2022-07-29T12:57:28;29.30;37.60
60033;DHT22;45905;50.570;10.428;2022-07-29T13:02:38;29.50;38.60
60033;DHT22;45905;50.570;10.428;2022-07-29T13:05:08;29.60;38.80
60033;DHT22;45905;50.570;10.428;2022-07-29T13:07:38;29.80;36.80
60033;DHT22;45905;50.570;10.428;2022-07-29T13:10:23;29.90;36.40
60033;DHT22;45905;50.570;10.428;2022-07-29T13:13:12;30.10;34.70
60033;DHT22;45905;50.570;10.428;2022-07-29T13:15:43;30.20;36.20
60033;DHT22;45905;50.570;10.428;2022-07-29T13:21:10;30.60;36.70
60033;DHT22;45905;50.570;10.428;2022-07-29T13:23:39;30.90;35.70
60033;DHT22;45905;50.570;10.428;2022-07-29T13:26:08;31.10;36.50
60033;DHT22;45905;50.570;10.428;2022-07-29T13:28:38;31.30;33.00
60033;DHT22;45905;50.570;10.428;2022-07-29T13:31:05;31.40;34.10
60033;DHT22;45905;50.570;10.428;2022-07-29T13:33:33;31.50;33.00
60033;DHT22;45905;50.570;10.428;2022-07-29T13:36:00;31.60;33.00
60033;DHT22;45905;50.570;10.428;2022-07-29T13:38:27;31.60;32.70
60033;DHT22;45905;50.570;10.428;2022-07-29T13:40:57;31.70;31.30
60033;DHT22;45905;50.570;10.428;2022-07-29T13:43:25;31.60;31.00
60033;DHT22;45905;50.570;10.428;2022-07-29T13:45:52;31.50;31.20
60033;DHT22;45905;50.570;10.428;2022-07-29T13:48:19;31.40;31.20
60033;DHT22;45905;50.570;10.428;2022-07-29T13:50:47;31.20;30.40
60033;DHT22;45905;50.570;10.428;2022-07-29T13:53:14;31.10;31.10
60033;DHT22;45905;50.570;10.428;2022-07-29T13:55:44;31.00;31.40
60033;DHT22;45905;50.570;10.428;2022-07-29T13:58:11;30.90;32.40
60033;DHT22;45905;50.570;10.428;2022-07-29T14:00:38;30.80;32.00
60033;DHT22;45905;50.570;10.428;2022-07-29T14:03:05;30.70;32.70
60033;DHT22;45905;50.570;10.428;2022-07-29T14:05:33;30.60;32.10
60033;DHT22;45905;50.570;10.428;2022-07-29T14:08:00;30.60;31.90
60033;DHT22;45905;50.570;10.428;2022-07-29T14:10:27;30.50;32.40
60033;DHT22;45905;50.570;10.428;2022-07-29T14:12:55;30.50;32.20
60033;DHT22;45905;50.570;10.428;2022-07-29T14:15:22;30.50;32.30
60033;DHT22;45905;50.570;10.428;2022-07-29T14:17:50;30.40;32.80
60033;DHT22;45905;50.570;10.428;2022-07-29T14:20:17;30.40;33.10
60033;DHT22;45905;50.570;10.428;2022-07-29T14:22:44;30.40;33.80
60033;DHT22;45905;50.570;10.428;2022-07-29T14:25:12;30.40;34.00
60033;DHT22;45905;50.570;10.428;2022-07-29T14:27:40;30.50;34.30
60033;DHT22;45905;50.570;10.428;2022-07-29T14:30:08;30.50;34.70
60033;DHT22;45905;50.570;10.428;2022-07-29T14:32:35;30.60;34.60
60033;DHT22;45905;50.570;10.428;2022-07-29T14:35:04;30.70;33.90
60033;DHT22;45905;50.570;10.428;2022-07-29T14:37:31;30.80;33.80
60033;DHT22;45905;50.570;10.428;2022-07-29T14:40:07;30.80;33.50
60033;DHT22;45905;50.570;10.428;2022-07-29T14:42:35;30.80;32.70
60033;DHT22;45905;50.570;10.428;2022-07-29T14:45:08;30.70;32.40
60033;DHT22;45905;50.570;10.428;2022-07-29T14:47:37;30.70;32.70
60033;DHT22;45905;50.570;10.428;2022-07-29T14:50:06;30.60;32.50
60033;DHT22;45905;50.570;10.428;2022-07-29T14:52:34;30.60;32.50
60033;DHT22;45905;50.570;10.428;2022-07-29T14:55:03;30.60;33.00
60033;DHT22;45905;50.570;10.428;2022-07-29T14:57:42;30.60;33.10
60033;DHT22;45905;50.570;10.428;2022-07-29T15:00:10;30.70;33.30
60033;DHT22;45905;50.570;10.428;2022-07-29T15:02:38;30.70;33.70
60033;DHT22;45905;50.570;10.428;2022-07-29T15:05:26;30.80;33.20
60033;DHT22;45905;50.570;10.428;2022-07-29T15:07:53;30.90;33.20
60033;DHT22;45905;50.570;10.428;2022-07-29T15:10:21;30.90;33.60
60033;DHT22;45905;50.570;10.428;2022-07-29T15:12:50;31.00;33.40
60033;DHT22;45905;50.570;10.428;2022-07-29T15:15:17;31.10;32.20
60033;DHT22;45905;50.570;10.428;2022-07-29T15:17:44;31.10;33.30
60033;DHT22;45905;50.570;10.428;2022-07-29T15:20:12;31.30;33.60
60033;DHT22;45905;50.570;10.428;2022-07-29T15:22:39;31.40;33.90
60033;DHT22;45905;50.570;10.428;2022-07-29T15:25:09;31.50;33.80
60033;DHT22;45905;50.570;10.428;2022-07-29T15:27:37;31.60;34.10
60033;DHT22;45905;50.570;10.428;2022-07-29T15:30:04;31.70;32.90
60033;DHT22;45905;50.570;10.428;2022-07-29T15:32:32;31.80;32.90
60033;DHT22;45905;50.570;10.428;2022-07-29T15:34:59;31.80;33.00
60033;DHT22;45905;50.570;10.428;2022-07-29T15:37:26;31.80;32.90
60033;DHT22;45905;50.570;10.428;2022-07-29T15:40:15;31.80;32.70
60033;DHT22;45905;50.570;10.428;2022-07-29T15:42:42;31.70;32.10
60033;DHT22;45905;50.570;10.428;2022-07-29T15:45:09;31.60;31.90
60033;DHT22;45905;50.570;10.428;2022-07-29T15:47:37;31.40;32.00
60033;DHT22;45905;50.570;10.428;2022-07-29T15:50:04;31.30;32.10
60033;DHT22;45905;50.570;10.428;2022-07-29T15:52:33;31.10;32.50
60033;DHT22;45905;50.570;10.428;2022-07-29T15:55:00;31.00;32.70
60033;DHT22;45905;50.570;10.428;2022-07-29T15:57:27;30.80;33.30
60033;DHT22;45905;50.570;10.428;2022-07-29T15:59:54;30.80;33.80
60033;DHT22;45905;50.570;10.428;2022-07-29T16:02:21;30.60;34.00
60033;DHT22;45905;50.570;10.428;2022-07-29T16:04:49;30.60;34.30